TimeCDT,TemperatureF,Dew PointF,Humidity,Sea Level PressureIn,VisibilityMPH,Wind Direction,Wind SpeedMPH,Gust SpeedMPH,PrecipitationIn,Events,Conditions,WindDirDegrees,DateUTC
12:58 AM,60.1,58.8,96,29.96,10.0,East,2.3,-,N/A,,Overcast,80,2013-05-08 05:58:00
1:58 AM,57.4,56.8,98,29.95,10.0,East,2.3,-,N/A,,Overcast,80,2013-05-08 06:58:00
2:58 AM,56.8,55.6,96,29.94,10.0,East,5.8,-,N/A,,Mostly Cloudy,100,2013-05-08 07:58:00
3:58 AM,54.9,54.3,98,29.94,10.0,Variable,3.5,-,N/A,,Overcast,0,2013-05-08 08:58:00
4:58 AM,58.1,54.1,87,29.94,10.0,East,1.2,-,N/A,,Overcast,90,2013-05-08 09:58:00
5:12 AM,57.2,55.4,94,29.94,10.0,ESE,3.5,-,N/A,Rain,Light Rain,110,2013-05-08 10:12:00
5:47 AM,55.4,55.4,100,29.95,9.0,East,4.6,-,N/A,Rain,Light Rain,80,2013-05-08 10:47:00
5:58 AM,56.5,56.1,99,29.95,10.0,East,3.5,-,0.00,,Light Drizzle,90,2013-05-08 10:58:00
6:00 AM,57.2,55.4,94,29.95,10.0,East,3.5,-,N/A,,Scattered Clouds,100,2013-05-08 11:00:00
6:54 AM,57.2,57.2,100,29.96,10.0,East,4.6,-,N/A,Rain,Light Rain,100,2013-05-08 11:54:00
6:58 AM,57.0,56.7,99,29.96,10.0,East,3.5,-,0.00,Rain,Light Rain,90,2013-05-08 11:58:00
7:43 AM,59.0,57.2,94,29.97,10.0,ESE,4.6,-,N/A,,Light Drizzle,110,2013-05-08 12:43:00
7:47 AM,59.0,57.2,94,29.97,10.0,East,4.6,-,N/A,,Partly Cloudy,100,2013-05-08 12:47:00
7:55 AM,59.0,59.0,100,29.97,10.0,East,5.8,-,N/A,,Light Drizzle,100,2013-05-08 12:55:00
7:58 AM,59.0,59.0,100,29.97,10.0,East,5.8,-,0.01,,Light Drizzle,100,2013-05-08 12:58:00
8:05 AM,59.0,57.2,94,29.97,10.0,ESE,4.6,-,N/A,,Scattered Clouds,110,2013-05-08 13:05:00
8:58 AM,61.9,58.8,90,29.98,10.0,SSE,8.1,-,0.00,,Drizzle,150,2013-05-08 13:58:00
9:07 AM,64.4,59.0,83,29.97,10.0,SSE,10.4,-,N/A,,Scattered Clouds,160,2013-05-08 14:07:00
9:58 AM,64.9,57.7,77,29.96,10.0,South,8.1,-,N/A,,Scattered Clouds,180,2013-05-08 14:58:00
10:38 AM,64.4,57.2,77,29.96,10.0,South,6.9,-,N/A,,Mostly Cloudy,170,2013-05-08 15:38:00
10:58 AM,65.8,57.2,74,29.96,10.0,South,5.8,-,N/A,,Overcast,180,2013-05-08 15:58:00
11:27 AM,66.2,57.2,73,29.97,10.0,South,12.7,-,N/A,,Overcast,190,2013-05-08 16:27:00
11:47 AM,66.2,57.2,73,29.97,10.0,South,9.2,-,N/A,,Overcast,190,2013-05-08 16:47:00
11:58 AM,66.2,59.0,78,29.97,10.0,South,10.4,-,N/A,,Overcast,180,2013-05-08 16:58:00
12:33 PM,66.2,59.0,78,29.97,10.0,South,8.1,-,N/A,,Overcast,190,2013-05-08 17:33:00
12:40 PM,64.4,59.0,83,29.97,10.0,SSW,4.6,-,N/A,Rain,Light Rain,200,2013-05-08 17:40:00
12:58 PM,65.3,58.5,78,29.97,10.0,South,5.8,-,0.00,Rain,Light Rain,190,2013-05-08 17:58:00
1:14 PM,64.4,59.0,83,29.97,10.0,South,4.6,-,N/A,,Scattered Clouds,180,2013-05-08 18:14:00
1:35 PM,66.2,59.0,78,29.96,10.0,South,4.6,-,N/A,,Light Drizzle,190,2013-05-08 18:35:00
1:51 PM,66.2,59.0,78,29.96,10.0,South,4.6,-,N/A,,Mostly Cloudy,190,2013-05-08 18:51:00
1:58 PM,66.6,58.6,76,29.97,10.0,SSW,4.6,-,0.00,,Mostly Cloudy,210,2013-05-08 18:58:00
2:58 PM,67.6,57.9,71,29.97,10.0,WSW,4.6,-,N/A,,Scattered Clouds,250,2013-05-08 19:58:00
3:58 PM,69.6,58.6,68,29.95,10.0,Variable,2.3,-,N/A,,Scattered Clouds,0,2013-05-08 20:58:00
4:58 PM,69.6,56.3,63,29.92,10.0,East,2.3,-,N/A,,Partly Cloudy,90,2013-05-08 21:58:00
5:58 PM,68.9,57.0,66,29.92,10.0,NNE,5.8,-,N/A,,Scattered Clouds,30,2013-05-08 22:58:00
6:58 PM,68.5,56.8,66,29.92,10.0,NE,5.8,-,N/A,,Scattered Clouds,50,2013-05-08 23:58:00
7:58 PM,67.1,58.3,73,29.91,10.0,NE,6.9,-,N/A,,Mostly Cloudy,40,2013-05-09 00:58:00
8:58 PM,64.0,57.0,78,29.91,10.0,NE,5.8,-,N/A,,Mostly Cloudy,40,2013-05-09 01:58:00
9:58 PM,63.5,58.3,83,29.90,10.0,ENE,6.9,-,N/A,,Mostly Cloudy,60,2013-05-09 02:58:00
10:58 PM,62.8,58.6,86,29.91,10.0,NNE,5.8,-,N/A,,Mostly Cloudy,20,2013-05-09 03:58:00
11:58 PM,62.6,59.2,89,29.90,10.0,North,5.8,-,N/A,,Overcast,360,2013-05-09 04:58:00